createdAt,value
2019-01-18T00:00:35.095Z,7.63
2019-01-18T00:05:37.583Z,12.50
2019-01-18T00:10:40.051Z,11.90
2019-01-18T00:15:42.515Z,8.23
2019-01-18T00:20:44.997Z,8.63
2019-01-18T00:25:47.449Z,8.47
2019-01-18T00:30:49.908Z,7.73
2019-01-18T00:35:52.357Z,8.80
2019-01-18T00:40:54.801Z,9.37
2019-01-18T00:45:57.247Z,7.33
2019-01-18T00:50:59.710Z,11.13
2019-01-18T00:56:02.183Z,13.50
2019-01-18T01:01:04.626Z,7.90
2019-01-18T01:06:07.070Z,7.10
2019-01-18T01:11:09.559Z,13.60
2019-01-18T01:16:12.023Z,6.30
2019-01-18T01:21:14.480Z,7.93
2019-01-18T01:26:16.923Z,8.47
2019-01-18T01:31:19.390Z,7.37
2019-01-18T01:36:21.838Z,8.30
2019-01-18T01:41:24.287Z,8.47
2019-01-18T01:46:26.739Z,9.20
2019-01-18T01:51:29.193Z,5.97
2019-01-18T01:56:31.641Z,8.77
2019-01-18T02:01:34.089Z,5.83
2019-01-18T02:06:36.540Z,7.73
2019-01-18T02:11:39.002Z,14.67
2019-01-18T02:16:41.478Z,8.37
2019-01-18T02:21:43.931Z,12.90
2019-01-18T02:26:46.390Z,15.47
2019-01-18T02:31:48.852Z,14.90
2019-01-18T02:36:51.293Z,10.37
2019-01-18T02:41:53.731Z,11.20
2019-01-18T02:46:56.244Z,11.50
2019-01-18T02:51:58.691Z,18.23
2019-01-18T02:57:01.145Z,18.27
2019-01-18T03:02:03.622Z,11.00
2019-01-18T03:07:06.080Z,13.27
2019-01-18T03:12:08.525Z,16.20
2019-01-18T03:17:10.969Z,12.77
2019-01-18T03:22:13.423Z,14.20
2019-01-18T03:27:15.890Z,13.93
2019-01-18T03:32:18.340Z,9.77
2019-01-18T03:37:20.781Z,10.93
2019-01-18T03:42:23.272Z,10.17
2019-01-18T03:47:25.897Z,12.87
2019-01-18T03:52:28.373Z,14.33
2019-01-18T03:57:30.819Z,12.43
2019-01-18T04:02:33.284Z,11.90
2019-01-18T04:07:35.759Z,15.33
2019-01-18T04:12:38.220Z,8.23
2019-01-18T04:17:40.678Z,12.00
2019-01-18T04:22:43.154Z,11.87
2019-01-18T04:27:45.617Z,15.03
2019-01-18T04:32:48.059Z,8.73
2019-01-18T04:37:50.509Z,19.03
2019-01-18T04:42:52.958Z,12.10
2019-01-18T04:47:55.417Z,12.37
2019-01-18T04:52:57.885Z,14.00
2019-01-18T04:58:00.360Z,16.20
2019-01-18T05:03:02.825Z,11.30
2019-01-18T05:08:05.265Z,9.20
2019-01-18T05:13:07.737Z,11.47
2019-01-18T05:18:10.208Z,14.53
2019-01-18T05:23:12.667Z,14.90
2019-01-18T05:28:15.141Z,11.63
2019-01-18T05:33:17.591Z,11.73
2019-01-18T05:38:20.109Z,13.47
2019-01-18T05:43:22.568Z,12.87
2019-01-18T05:48:25.025Z,13.53
2019-01-18T05:53:27.488Z,13.40
2019-01-18T05:58:31.218Z,12.30
2019-01-18T06:03:32.394Z,14.70
2019-01-18T06:08:34.850Z,16.50
2019-01-18T06:13:37.307Z,13.27
2019-01-18T06:18:39.760Z,13.70
2019-01-18T06:23:42.211Z,13.50
2019-01-18T06:28:44.659Z,11.43
2019-01-18T06:33:47.155Z,14.20
2019-01-18T06:38:49.608Z,18.70
2019-01-18T06:43:52.874Z,15.37
2019-01-18T06:48:54.522Z,18.70
2019-01-18T06:53:56.992Z,15.90
2019-01-18T06:58:59.459Z,16.60
2019-01-18T07:04:02.005Z,19.50
2019-01-18T07:09:04.460Z,16.27
2019-01-18T07:14:06.925Z,15.43
2019-01-18T07:19:09.394Z,17.13
2019-01-18T07:24:11.861Z,25.07
2019-01-18T07:29:14.339Z,18.57
2019-01-18T07:34:16.799Z,18.40
2019-01-18T07:39:22.450Z,17.63
2019-01-18T07:44:21.742Z,16.03
2019-01-18T07:49:24.208Z,18.63
2019-01-18T07:54:26.640Z,14.83
2019-01-18T07:59:29.110Z,14.67
2019-01-18T08:04:31.579Z,16.57
2019-01-18T08:09:34.148Z,15.23
2019-01-18T08:14:36.627Z,18.53
2019-01-18T08:19:39.119Z,16.23
2019-01-18T08:24:41.551Z,20.87
2019-01-18T08:29:44.005Z,20.37
2019-01-18T08:34:46.464Z,17.27
2019-01-18T08:39:48.911Z,17.50
2019-01-18T08:44:51.370Z,22.50
2019-01-18T08:49:53.851Z,31.13
2019-01-18T08:54:56.329Z,27.70
2019-01-18T08:59:58.788Z,22.90
2019-01-18T09:05:01.239Z,18.20
2019-01-18T09:10:03.843Z,23.43
2019-01-18T09:15:06.290Z,20.60
2019-01-18T09:20:17.730Z,14.03
2019-01-18T09:25:20.183Z,21.07
2019-01-18T09:30:25.314Z,14.97
2019-01-18T09:35:27.788Z,12.03
2019-01-18T09:40:30.254Z,22.33
2019-01-18T09:45:32.691Z,20.00
2019-01-18T09:50:35.164Z,20.03
2019-01-18T09:55:37.635Z,16.90
2019-01-18T10:00:40.096Z,21.50
2019-01-18T10:05:42.561Z,20.20
2019-01-18T10:10:45.060Z,15.27
2019-01-18T10:15:47.489Z,14.90
2019-01-18T10:20:49.963Z,22.70
2019-01-18T10:25:52.414Z,16.97
2019-01-18T10:30:54.914Z,20.83
2019-01-18T10:35:57.382Z,13.50
2019-01-18T10:40:59.836Z,10.57
2019-01-18T10:46:02.300Z,11.90
2019-01-18T10:51:04.753Z,11.63
2019-01-18T10:56:07.204Z,10.63
2019-01-18T11:01:09.678Z,12.67
2019-01-18T11:06:12.120Z,11.20
2019-01-18T11:11:14.574Z,12.63
2019-01-18T11:16:17.015Z,11.07
2019-01-18T11:21:19.494Z,10.10
2019-01-18T11:26:21.953Z,10.47
2019-01-18T11:31:24.478Z,11.53
2019-01-18T11:36:26.896Z,8.37
2019-01-18T11:41:29.381Z,39.77
2019-01-18T11:46:31.847Z,17.30
2019-01-18T11:51:34.305Z,13.60
2019-01-18T11:56:36.747Z,10.17
2019-01-18T12:01:39.207Z,12.57
2019-01-18T12:06:41.669Z,9.60
2019-01-18T12:11:44.134Z,15.43
2019-01-18T12:16:46.613Z,12.57
2019-01-18T12:21:49.056Z,8.50
2019-01-18T12:26:51.516Z,13.40
2019-01-18T12:31:53.979Z,9.70
2019-01-18T12:36:58.909Z,9.40
2019-01-18T12:41:58.911Z,16.43
2019-01-18T12:47:01.375Z,11.43
2019-01-18T12:52:03.884Z,12.83
2019-01-18T12:57:06.330Z,9.87
2019-01-18T13:02:08.787Z,12.80
2019-01-18T13:07:11.242Z,15.73
2019-01-18T13:12:13.709Z,14.30
2019-01-18T13:17:16.172Z,12.83
2019-01-18T13:22:18.643Z,14.87
2019-01-18T13:27:21.108Z,8.90
2019-01-18T13:32:23.670Z,11.93
2019-01-18T13:37:26.123Z,13.47
2019-01-18T13:42:28.634Z,12.20
2019-01-18T13:47:31.085Z,10.37
2019-01-18T13:52:33.626Z,11.40
2019-01-18T13:57:36.138Z,10.67
2019-01-18T14:02:40.624Z,11.90
2019-01-18T14:07:41.057Z,10.97
2019-01-18T14:12:43.621Z,20.87
2019-01-18T14:17:46.095Z,10.07
2019-01-18T14:22:48.553Z,14.53
2019-01-18T14:27:51.005Z,19.53
2019-01-18T14:32:55.706Z,14.10
2019-01-18T14:37:55.929Z,15.20
2019-01-18T14:42:58.392Z,22.53
2019-01-18T14:48:00.885Z,19.50
2019-01-18T14:53:03.352Z,20.27
2019-01-18T14:58:05.837Z,19.77
2019-01-18T15:03:08.288Z,13.80
2019-01-18T15:08:10.769Z,14.60
2019-01-18T15:13:13.248Z,18.43
2019-01-18T15:18:15.717Z,16.07
2019-01-18T15:23:18.180Z,23.87
2019-01-18T15:28:20.644Z,24.87
2019-01-18T15:33:23.108Z,55.37
2019-01-18T15:38:25.573Z,26.67
2019-01-18T15:43:28.063Z,16.37
2019-01-18T15:48:30.524Z,15.83
2019-01-18T15:53:32.996Z,12.60
2019-01-18T15:58:35.463Z,15.83
2019-01-18T16:03:37.922Z,14.17
2019-01-18T16:08:40.372Z,21.60
2019-01-18T16:13:42.972Z,20.33
2019-01-18T16:18:45.412Z,18.57
2019-01-18T16:23:47.888Z,19.17
2019-01-18T16:28:50.374Z,19.23
2019-01-18T16:33:52.822Z,15.17
2019-01-18T16:38:55.278Z,18.77
2019-01-18T16:43:57.900Z,11.53
2019-01-18T16:49:00.373Z,13.37
2019-01-18T16:54:02.901Z,15.20
2019-01-18T16:59:05.320Z,21.23
2019-01-18T17:04:07.795Z,18.80
2019-01-18T17:09:10.252Z,17.57
2019-01-18T17:14:12.753Z,20.70
2019-01-18T17:19:15.227Z,21.80
2019-01-18T17:24:17.698Z,24.70
2019-01-18T17:29:20.230Z,19.37
2019-01-18T17:34:22.628Z,18.07
2019-01-18T17:39:25.091Z,17.67
2019-01-18T17:44:27.570Z,22.13
2019-01-18T17:49:33.214Z,19.10
2019-01-18T17:54:35.702Z,22.03
2019-01-18T17:59:44.014Z,19.37
2019-01-18T18:05:01.597Z,23.83
2019-01-18T18:10:25.102Z,20.40
2019-01-18T18:15:33.267Z,16.27
2019-01-18T18:21:03.258Z,17.37
2019-01-18T18:26:08.183Z,19.97
2019-01-18T18:31:19.614Z,21.17
2019-01-18T18:36:40.118Z,22.03
2019-01-18T18:42:01.217Z,27.93
2019-01-18T18:47:18.698Z,24.00
2019-01-18T18:52:23.834Z,19.77
2019-01-18T18:57:51.080Z,17.57
2019-01-18T19:03:11.944Z,25.73
2019-01-18T19:08:29.416Z,19.47
2019-01-18T19:13:37.579Z,19.07
2019-01-18T19:19:01.664Z,20.73
2019-01-18T19:24:13.257Z,20.90
2019-01-18T19:29:21.325Z,23.30
2019-01-18T19:34:38.933Z,27.50
2019-01-18T19:39:50.491Z,24.77
2019-01-18T19:45:11.525Z,19.97
2019-01-18T19:50:47.936Z,26.27
2019-01-18T19:56:17.604Z,33.07
2019-01-18T20:01:34.981Z,28.33
2019-01-18T20:06:43.235Z,32.23
2019-01-18T20:11:57.453Z,27.27
2019-01-18T20:16:59.920Z,22.33
2019-01-18T20:22:14.667Z,23.67
2019-01-18T20:27:17.509Z,17.40
2019-01-18T20:32:22.315Z,20.37
2019-01-18T20:37:43.200Z,20.80
2019-01-18T20:42:48.443Z,14.87
2019-01-18T20:47:59.840Z,13.17
2019-01-18T20:53:20.930Z,14.57
2019-01-18T20:58:35.520Z,9.77
2019-01-18T21:03:59.572Z,14.20
2019-01-18T21:09:07.903Z,14.03
2019-01-18T21:14:16.415Z,15.93
2019-01-18T21:19:43.421Z,10.17
2019-01-18T21:24:51.642Z,13.23
2019-01-18T21:29:59.894Z,10.30
2019-01-18T21:35:17.331Z,10.97
2019-01-18T21:40:37.849Z,10.73
2019-01-18T21:46:04.987Z,14.13
2019-01-18T21:51:19.420Z,12.40
2019-01-18T21:56:24.773Z,12.97
2019-01-18T22:01:39.227Z,13.00
2019-01-18T22:07:00.437Z,18.37
2019-01-18T22:12:30.097Z,16.43
2019-01-18T22:17:44.358Z,12.93
2019-01-18T22:22:46.929Z,13.40
2019-01-18T22:27:58.341Z,13.57
2019-01-18T22:33:00.859Z,13.00
2019-01-18T22:38:06.160Z,13.70
2019-01-18T22:43:20.652Z,11.50
2019-01-18T22:48:47.402Z,12.93
2019-01-18T22:53:52.540Z,15.90
2019-01-18T22:59:16.262Z,13.70
2019-01-18T23:04:24.557Z,14.53
2019-01-18T23:09:38.805Z,13.57
2019-01-18T23:14:50.224Z,13.00
2019-01-18T23:19:55.630Z,13.50
2019-01-18T23:24:58.106Z,13.33
2019-01-18T23:30:09.313Z,13.50
2019-01-18T23:35:23.618Z,12.17
2019-01-18T23:40:56.958Z,10.67
2019-01-18T23:46:20.878Z,13.83
2019-01-18T23:51:44.405Z,14.43
2019-01-18T23:57:07.915Z,15.07
